createdAt,value
2018-07-19T00:02:20.517Z,0.90
2018-07-19T00:05:33.944Z,1.13
2018-07-19T00:08:47.791Z,0.90
2018-07-19T00:12:01.586Z,1.00
2018-07-19T00:15:15.601Z,0.80
2018-07-19T00:18:32.069Z,1.00
2018-07-19T00:21:46.031Z,1.00
2018-07-19T00:24:59.293Z,0.90
2018-07-19T00:28:12.708Z,1.00
2018-07-19T00:31:18.852Z,0.90
2018-07-19T00:34:32.570Z,1.00
2018-07-19T00:37:47.934Z,0.87
2018-07-19T00:41:01.541Z,0.90
2018-07-19T00:44:14.854Z,0.60
2018-07-19T00:47:28.322Z,0.80
2018-07-19T00:50:41.893Z,1.03
2018-07-19T00:53:55.595Z,1.00
2018-07-19T00:57:08.935Z,0.80
2018-07-19T01:00:23.652Z,0.90
2018-07-19T01:03:37.370Z,0.80
2018-07-19T01:06:51.104Z,0.80
2018-07-19T01:10:05.095Z,0.80
2018-07-19T01:13:18.933Z,0.77
2018-07-19T01:16:32.957Z,0.80
2018-07-19T01:19:46.905Z,0.70
2018-07-19T01:23:01.292Z,0.80
2018-07-19T01:26:14.420Z,0.77
2018-07-19T01:29:27.744Z,0.80
2018-07-19T01:32:41.225Z,0.93
2018-07-19T01:35:54.445Z,0.90
2018-07-19T01:39:08.153Z,0.77
2018-07-19T01:42:53.742Z,0.70
2018-07-19T01:46:07.214Z,0.70
2018-07-19T01:49:20.617Z,0.70
2018-07-19T01:52:34.966Z,0.80
2018-07-19T01:55:48.479Z,0.80
2018-07-19T01:59:02.891Z,0.83
2018-07-19T02:02:16.947Z,0.80
2018-07-19T02:05:31.959Z,0.70
2018-07-19T02:08:45.813Z,0.80
2018-07-19T02:12:00.042Z,0.90
2018-07-19T02:15:06.168Z,0.80
2018-07-19T02:18:19.868Z,1.00
2018-07-19T02:21:34.405Z,0.97
2018-07-19T02:24:48.179Z,0.70
2018-07-19T02:28:01.678Z,0.83
2018-07-19T02:31:15.180Z,0.93
2018-07-19T02:34:28.959Z,0.80
2018-07-19T02:37:42.089Z,0.80
2018-07-19T02:40:56.332Z,0.83
2018-07-19T02:44:09.635Z,0.90
2018-07-19T02:47:22.877Z,0.70
2018-07-19T02:50:36.725Z,0.63
2018-07-19T02:53:49.979Z,0.70
2018-07-19T02:57:03.528Z,0.90
2018-07-19T03:00:16.826Z,0.80
2018-07-19T03:03:22.877Z,0.80
2018-07-19T03:06:36.367Z,0.70
2018-07-19T03:09:49.649Z,0.70
2018-07-19T03:13:03.641Z,1.00
2018-07-19T03:16:17.869Z,0.90
2018-07-19T03:19:32.644Z,0.90
2018-07-19T03:22:46.058Z,0.80
2018-07-19T03:25:59.469Z,1.00
2018-07-19T03:29:13.155Z,0.93
2018-07-19T03:32:19.031Z,1.00
2018-07-19T03:35:33.228Z,1.00
2018-07-19T03:38:46.633Z,0.77
2018-07-19T03:42:00.066Z,1.03
2018-07-19T03:45:13.681Z,0.90
2018-07-19T03:48:26.815Z,1.13
2018-07-19T03:51:39.999Z,1.10
2018-07-19T03:54:53.399Z,0.90
2018-07-19T03:58:06.432Z,0.90
2018-07-19T04:01:20.238Z,1.07
2018-07-19T04:04:26.305Z,0.90
2018-07-19T04:07:40.143Z,0.93
2018-07-19T04:10:54.690Z,0.97
2018-07-19T04:14:07.627Z,0.80
2018-07-19T04:17:21.010Z,1.10
2018-07-19T04:20:35.164Z,1.10
2018-07-19T04:23:49.295Z,1.00
2018-07-19T04:26:55.740Z,1.10
2018-07-19T04:30:09.055Z,1.00
2018-07-19T04:33:22.241Z,1.10
2018-07-19T04:36:35.785Z,0.73
2018-07-19T04:39:49.769Z,0.90
2018-07-19T04:43:02.934Z,1.10
2018-07-19T04:46:15.795Z,0.87
2018-07-19T04:49:29.294Z,1.00
2018-07-19T04:52:42.648Z,1.17
2018-07-19T04:55:56.161Z,0.90
2018-07-19T04:59:09.638Z,1.00
2018-07-19T05:02:23.131Z,1.00
2018-07-19T05:05:36.239Z,1.00
2018-07-19T05:08:49.363Z,1.00
2018-07-19T05:12:02.742Z,1.03
2018-07-19T05:15:16.066Z,1.10
2018-07-19T05:18:29.325Z,1.10
2018-07-19T05:21:42.736Z,1.00
2018-07-19T05:24:56.129Z,1.20
2018-07-19T05:28:10.233Z,1.40
2018-07-19T05:31:16.495Z,1.00
2018-07-19T05:34:29.902Z,1.23
2018-07-19T05:37:43.128Z,1.13
2018-07-19T05:40:56.709Z,1.00
2018-07-19T05:44:10.927Z,1.27
2018-07-19T05:47:26.653Z,1.00
2018-07-19T05:50:40.333Z,1.17
2018-07-19T05:53:53.695Z,1.00
2018-07-19T05:57:06.833Z,1.20
2018-07-19T06:00:20.273Z,1.10
2018-07-19T06:03:33.861Z,1.30
2018-07-19T06:06:47.763Z,1.10
2018-07-19T06:10:00.989Z,1.10
2018-07-19T06:13:14.226Z,1.00
2018-07-19T06:16:27.307Z,1.10
2018-07-19T06:19:40.868Z,1.00
2018-07-19T06:22:54.311Z,0.97
2018-07-19T06:26:07.434Z,1.20
2018-07-19T06:29:21.052Z,1.20
2018-07-19T06:32:35.074Z,0.87
2018-07-19T06:35:48.382Z,1.13
2018-07-19T06:39:01.560Z,1.20
2018-07-19T06:42:15.007Z,1.30
2018-07-19T06:45:28.092Z,1.40
2018-07-19T06:48:42.186Z,1.10
2018-07-19T06:51:55.658Z,1.10
2018-07-19T06:55:09.320Z,1.00
2018-07-19T06:58:22.269Z,1.40
2018-07-19T07:01:36.137Z,1.27
2018-07-19T07:04:49.275Z,1.23
2018-07-19T07:08:02.504Z,1.17
2018-07-19T07:11:16.608Z,1.50
2018-07-19T07:14:30.591Z,1.10
2018-07-19T07:17:36.555Z,1.30
2018-07-19T07:20:50.409Z,1.40
2018-07-19T07:24:04.241Z,1.47
2018-07-19T07:27:18.368Z,1.40
2018-07-19T07:30:33.137Z,1.77
2018-07-19T07:33:46.803Z,1.77
2018-07-19T07:37:00.615Z,1.60
2018-07-19T07:40:13.875Z,1.40
2018-07-19T07:43:27.826Z,1.53
2018-07-19T07:46:41.053Z,1.27
2018-07-19T07:49:54.350Z,1.70
2018-07-19T07:53:08.525Z,1.80
2018-07-19T07:56:22.539Z,1.80
2018-07-19T07:59:36.476Z,1.60
2018-07-19T08:02:51.739Z,1.50
2018-07-19T08:06:05.938Z,1.80
2018-07-19T08:09:20.442Z,1.93
2018-07-19T08:12:33.767Z,1.87
2018-07-19T08:15:47.007Z,1.90
2018-07-19T08:19:15.637Z,1.93
2018-07-19T08:22:29.759Z,1.67
2018-07-19T08:25:43.295Z,1.50
2018-07-19T08:28:57.367Z,1.53
2018-07-19T08:32:11.789Z,1.70
2018-07-19T08:35:17.477Z,2.10
2018-07-19T08:38:23.712Z,2.10
2018-07-19T08:41:37.380Z,2.07
2018-07-19T08:44:50.833Z,2.00
2018-07-19T08:48:04.700Z,2.10
2018-07-19T08:51:17.841Z,2.10
2018-07-19T08:58:00.366Z,2.10
2018-07-19T09:01:14.225Z,2.30
2018-07-19T09:04:27.696Z,1.93
2018-07-19T09:07:41.069Z,2.03
2018-07-19T09:10:55.414Z,1.83
2018-07-19T09:14:09.332Z,2.10
2018-07-19T09:17:22.474Z,1.63
2018-07-19T09:20:36.346Z,2.10
2018-07-19T09:23:49.369Z,2.00
2018-07-19T09:27:03.338Z,2.00
2018-07-19T09:30:16.925Z,1.70
2018-07-19T09:33:30.846Z,1.83
2018-07-19T09:36:44.402Z,2.10
2018-07-19T09:39:57.781Z,1.90
2018-07-19T09:43:11.122Z,2.10
2018-07-19T09:46:24.374Z,2.20
2018-07-19T09:49:37.761Z,2.10
2018-07-19T09:52:51.076Z,2.43
2018-07-19T09:56:04.485Z,2.30
2018-07-19T09:59:17.704Z,2.37
2018-07-19T10:02:31.089Z,2.07
2018-07-19T10:05:44.849Z,2.13
2018-07-19T10:08:58.668Z,2.20
2018-07-19T10:12:11.925Z,2.43
2018-07-19T10:15:25.333Z,2.50
2018-07-19T10:18:39.216Z,2.50
2018-07-19T10:21:52.833Z,2.20
2018-07-19T10:25:06.118Z,2.43
2018-07-19T10:28:19.522Z,2.40
2018-07-19T10:31:33.431Z,2.40
2018-07-19T10:34:46.631Z,2.70
2018-07-19T10:38:00.272Z,2.20
2018-07-19T10:41:13.252Z,2.30
2018-07-19T10:44:26.505Z,2.33
2018-07-19T10:47:40.276Z,2.60
2018-07-19T10:50:53.730Z,2.00
2018-07-19T10:54:06.868Z,2.40
2018-07-19T10:57:21.037Z,2.23
2018-07-19T11:00:35.217Z,2.70
2018-07-19T11:03:40.813Z,2.60
2018-07-19T11:06:53.957Z,2.10
2018-07-19T11:10:06.947Z,2.17
2018-07-19T11:13:20.285Z,2.00
2018-07-19T11:16:33.653Z,1.87
2018-07-19T11:19:47.777Z,2.00
2018-07-19T11:23:00.936Z,2.17
2018-07-19T11:26:14.658Z,2.10
2018-07-19T11:29:27.883Z,2.20
2018-07-19T11:32:41.355Z,1.90
2018-07-19T11:35:54.772Z,2.17
2018-07-19T11:39:08.476Z,2.03
2018-07-19T11:42:21.693Z,2.20
2018-07-19T11:45:35.338Z,2.37
2018-07-19T11:48:48.956Z,2.23
2018-07-19T11:52:02.755Z,2.07
2018-07-19T11:55:16.333Z,2.10
2018-07-19T11:58:29.177Z,2.03
2018-07-19T12:01:42.551Z,2.23
2018-07-19T12:04:55.778Z,1.77
2018-07-19T12:08:09.497Z,2.37
2018-07-19T12:11:22.809Z,2.03
2018-07-19T12:14:36.288Z,2.10
2018-07-19T12:17:50.037Z,2.20
2018-07-19T12:21:03.300Z,1.90
2018-07-19T12:24:09.601Z,2.10
2018-07-19T12:27:23.661Z,1.90
2018-07-19T12:30:36.580Z,1.87
2018-07-19T12:33:50.758Z,2.17
2018-07-19T12:37:03.764Z,1.97
2018-07-19T12:40:17.199Z,2.13
2018-07-19T12:43:31.268Z,1.90
2018-07-19T12:46:45.621Z,1.87
2018-07-19T12:49:58.833Z,2.37
2018-07-19T12:53:13.304Z,1.80
2018-07-19T12:56:26.594Z,2.03
2018-07-19T12:59:39.872Z,1.73
2018-07-19T13:02:52.880Z,2.00
2018-07-19T13:06:06.121Z,2.00
2018-07-19T13:09:20.479Z,1.70
2018-07-19T13:12:34.229Z,1.87
2018-07-19T13:15:47.647Z,1.80
2018-07-19T13:19:02.087Z,1.73
2018-07-19T13:22:15.499Z,1.70
2018-07-19T13:25:21.439Z,1.77
2018-07-19T13:28:35.284Z,2.07
2018-07-19T13:31:49.389Z,2.30
2018-07-19T13:35:02.424Z,2.70
2018-07-19T13:38:15.568Z,2.70
2018-07-19T13:41:29.892Z,2.73
2018-07-19T13:44:43.224Z,2.57
2018-07-19T13:47:57.173Z,2.67
2018-07-19T13:51:10.565Z,2.50
2018-07-19T13:54:56.961Z,2.60
2018-07-19T13:58:10.765Z,2.83
2018-07-19T14:01:24.365Z,2.63
2018-07-19T14:04:38.254Z,3.10
2018-07-19T14:07:51.689Z,2.73
2018-07-19T14:11:05.406Z,3.00
2018-07-19T14:14:19.205Z,3.00
2018-07-19T14:17:32.282Z,2.83
2018-07-19T14:20:45.781Z,2.70
2018-07-19T14:24:00.883Z,2.87
2018-07-19T14:27:14.013Z,2.97
2018-07-19T14:30:27.086Z,2.37
2018-07-19T14:33:40.384Z,2.37
2018-07-19T14:36:53.436Z,2.60
2018-07-19T14:40:06.723Z,2.83
2018-07-19T14:43:20.116Z,2.87
2018-07-19T14:46:26.631Z,2.80
2018-07-19T14:49:40.475Z,2.53
2018-07-19T14:52:53.983Z,2.60
2018-07-19T14:56:07.591Z,3.00
2018-07-19T14:59:21.727Z,2.73
2018-07-19T15:02:35.217Z,2.43
2018-07-19T15:05:48.481Z,2.60
2018-07-19T15:09:02.065Z,2.60
2018-07-19T15:12:15.086Z,2.67
2018-07-19T15:15:28.941Z,2.30
2018-07-19T15:18:42.924Z,2.63
2018-07-19T15:21:56.540Z,2.33
2018-07-19T15:40:05.248Z,2.43
2018-07-19T15:43:19.508Z,1.70
2018-07-19T15:46:34.896Z,2.27
2018-07-19T15:49:48.872Z,2.37
2018-07-19T15:53:02.026Z,2.13
2018-07-19T15:56:23.898Z,2.73
2018-07-19T15:59:37.186Z,2.33
2018-07-19T16:02:43.548Z,2.60
2018-07-19T16:05:57.665Z,2.63
2018-07-19T16:09:11.088Z,2.70
2018-07-19T16:12:16.843Z,2.70
2018-07-19T16:15:30.119Z,2.53
2018-07-19T16:18:43.254Z,2.47
2018-07-19T16:21:56.956Z,2.23
2018-07-19T16:25:11.253Z,2.07
2018-07-19T16:28:17.919Z,2.13
2018-07-19T16:31:31.457Z,1.97
2018-07-19T16:34:44.855Z,2.53
2018-07-19T16:37:58.265Z,2.17
2018-07-19T16:41:04.695Z,2.10
2018-07-19T16:44:18.630Z,2.33
2018-07-19T16:47:32.056Z,2.23
2018-07-19T16:50:45.513Z,2.13
2018-07-19T16:53:58.611Z,2.10
2018-07-19T16:57:11.871Z,2.20
2018-07-19T17:00:25.805Z,2.33
2018-07-19T17:03:32.517Z,2.13
2018-07-19T17:06:45.673Z,2.30
2018-07-19T17:09:59.791Z,1.90
2018-07-19T17:13:13.589Z,1.93
2018-07-19T17:16:26.846Z,2.13
2018-07-19T17:19:39.974Z,2.10
2018-07-19T17:22:53.549Z,2.20
2018-07-19T17:26:06.945Z,2.07
2018-07-19T17:29:23.230Z,1.90
2018-07-19T17:32:36.651Z,2.03
2018-07-19T17:35:42.746Z,2.00
2018-07-19T17:38:56.785Z,2.37
2018-07-19T17:42:10.768Z,2.20
2018-07-19T17:45:24.876Z,2.27
2018-07-19T17:48:38.572Z,2.20
2018-07-19T17:51:52.130Z,2.00
2018-07-19T17:55:06.011Z,1.77
2018-07-19T17:58:19.805Z,2.10
2018-07-19T18:01:33.396Z,2.03
2018-07-19T18:04:46.897Z,2.10
2018-07-19T18:08:00.727Z,1.90
2018-07-19T18:11:15.126Z,2.10
2018-07-19T18:14:29.308Z,1.87
2018-07-19T18:17:43.411Z,1.90
2018-07-19T18:20:57.350Z,1.93
2018-07-19T18:24:03.425Z,1.97
2018-07-19T18:27:17.034Z,2.47
2018-07-19T18:30:30.425Z,2.03
2018-07-19T18:33:44.812Z,2.30
2018-07-19T18:36:58.439Z,2.10
2018-07-19T18:40:11.452Z,2.23
2018-07-19T18:43:24.600Z,1.90
2018-07-19T18:46:37.468Z,2.17
2018-07-19T18:49:50.802Z,1.93
2018-07-19T18:53:04.769Z,2.37
2018-07-19T18:56:18.313Z,2.70
2018-07-19T18:59:31.536Z,1.83
2018-07-19T19:02:45.124Z,2.03
2018-07-19T19:05:58.486Z,2.10
2018-07-19T19:09:11.783Z,2.13
2018-07-19T19:12:25.761Z,2.00
2018-07-19T19:15:39.524Z,2.40
2018-07-19T19:18:53.281Z,2.20
2018-07-19T19:22:06.893Z,2.10
2018-07-19T19:25:20.348Z,2.07
2018-07-19T19:28:26.028Z,2.40
2018-07-19T19:31:39.413Z,2.20
2018-07-19T19:34:52.922Z,2.50
2018-07-19T19:37:58.761Z,2.17
2018-07-19T19:41:13.290Z,2.47
2018-07-19T19:44:26.717Z,2.10
2018-07-19T19:47:40.120Z,1.93
2018-07-19T19:50:53.783Z,2.20
2018-07-19T19:54:08.540Z,2.10
2018-07-19T19:57:21.302Z,1.90
2018-07-19T20:00:35.017Z,2.27
2018-07-19T20:03:48.216Z,2.17
2018-07-19T20:07:01.614Z,2.10
2018-07-19T20:10:15.510Z,2.43
2018-07-19T20:13:28.832Z,2.20
2018-07-19T20:16:42.880Z,2.80
2018-07-19T20:19:56.046Z,2.77
2018-07-19T20:23:09.449Z,2.90
2018-07-19T20:26:22.972Z,2.67
2018-07-19T20:29:37.223Z,2.80
2018-07-19T20:32:50.659Z,2.37
2018-07-19T20:36:04.272Z,2.90
2018-07-19T20:39:17.330Z,2.67
2018-07-19T20:42:30.833Z,2.57
2018-07-19T20:45:44.174Z,2.23
2018-07-19T20:48:57.406Z,2.77
2018-07-19T20:52:11.183Z,2.77
2018-07-19T20:55:24.620Z,2.67
2018-07-19T20:58:38.217Z,2.60
2018-07-19T21:01:44.771Z,2.63
2018-07-19T21:04:57.949Z,2.27
2018-07-19T21:08:12.030Z,2.77
2018-07-19T21:11:25.620Z,2.90
2018-07-19T21:14:38.861Z,2.80
2018-07-19T21:17:52.017Z,2.67
2018-07-19T21:21:05.652Z,2.90
2018-07-19T21:24:18.980Z,3.00
2018-07-19T21:27:24.886Z,2.83
2018-07-19T21:30:38.825Z,2.80
2018-07-19T21:33:53.228Z,2.47
2018-07-19T21:37:07.249Z,2.63
2018-07-19T21:40:21.193Z,3.13
2018-07-19T21:43:27.108Z,2.77
2018-07-19T21:46:40.745Z,2.67
2018-07-19T21:49:54.765Z,3.40
2018-07-19T21:53:08.272Z,2.97
2018-07-19T21:56:22.352Z,2.80
2018-07-19T21:59:27.726Z,2.43
2018-07-19T22:02:43.293Z,2.90
2018-07-19T22:05:56.740Z,3.20
2018-07-19T22:09:10.476Z,2.97
2018-07-19T22:12:16.572Z,2.67
2018-07-19T22:15:22.393Z,2.77
2018-07-19T22:18:36.188Z,2.83
2018-07-19T22:21:49.733Z,2.90
2018-07-19T22:25:03.083Z,2.63
2018-07-19T22:28:17.464Z,3.07
2018-07-19T22:31:31.173Z,2.93
2018-07-19T22:34:44.617Z,3.03
2018-07-19T22:37:58.292Z,3.30
2018-07-19T22:41:04.584Z,2.90
2018-07-19T22:44:18.278Z,3.33
2018-07-19T22:47:31.797Z,3.30
2018-07-19T22:50:46.040Z,2.97
2018-07-19T22:54:00.239Z,3.10
2018-07-19T22:57:13.769Z,2.73
2018-07-19T23:00:27.349Z,2.53
2018-07-19T23:03:33.481Z,2.83
2018-07-19T23:06:47.347Z,2.93
2018-07-19T23:10:01.205Z,3.20
2018-07-19T23:13:14.565Z,3.17
2018-07-19T23:16:28.693Z,3.43
2018-07-19T23:19:41.809Z,3.37
2018-07-19T23:22:55.296Z,2.90
2018-07-19T23:26:09.204Z,3.20
2018-07-19T23:29:15.289Z,3.40
2018-07-19T23:32:28.304Z,3.33
2018-07-19T23:35:48.647Z,2.80
2018-07-19T23:39:08.078Z,3.43
2018-07-19T23:42:26.638Z,2.93
2018-07-19T23:45:46.255Z,3.47
2018-07-19T23:48:51.913Z,3.00
2018-07-19T23:52:05.713Z,3.00
2018-07-19T23:55:19.024Z,3.40
2018-07-19T23:58:32.599Z,3.10
